createdAt,value
2023-02-28T00:02:19.058Z,0.63
2023-02-28T00:05:24.243Z,0.73
2023-02-28T00:08:26.215Z,0.66
2023-02-28T00:11:28.567Z,0.66
2023-02-28T00:14:31.876Z,0.62
2023-02-28T00:17:33.943Z,0.61
2023-02-28T00:20:35.917Z,0.59
2023-02-28T00:23:38.650Z,0.52
2023-02-28T00:26:40.546Z,0.53
2023-02-28T00:29:42.487Z,0.12
2023-02-28T00:32:46.546Z,0.44
2023-02-28T00:35:49.810Z,0.44
2023-02-28T00:38:51.948Z,0.47
2023-02-28T00:41:53.887Z,0.47
2023-02-28T00:44:57.079Z,0.46
2023-02-28T00:47:59.094Z,0.41
2023-02-28T00:51:01.391Z,0.39
2023-02-28T00:54:03.358Z,0.38
2023-02-28T00:57:05.419Z,0.35
2023-02-28T01:00:09.702Z,0.36
2023-02-28T01:03:11.615Z,-0.03
2023-02-28T01:06:13.623Z,0.05
2023-02-28T01:09:15.636Z,0.29
2023-02-28T01:12:18.264Z,0.52
2023-02-28T01:15:22.580Z,0.58
2023-02-28T01:18:25.658Z,0.14
2023-02-28T01:21:28.000Z,0.52
2023-02-28T01:24:30.430Z,0.33
2023-02-28T01:27:32.480Z,0.44
2023-02-28T01:30:35.006Z,0.14
2023-02-28T01:33:37.378Z,0.42
2023-02-28T01:36:39.334Z,0.42
2023-02-28T01:39:41.330Z,0.01
2023-02-28T01:42:43.395Z,0.43
2023-02-28T01:45:45.294Z,0.43
2023-02-28T01:49:00.756Z,0.27
2023-02-28T01:52:03.397Z,0.40
2023-02-28T01:55:08.667Z,0.38
2023-02-28T01:58:11.987Z,0.25
2023-02-28T02:01:22.418Z,0.02
2023-02-28T02:04:29.064Z,0.32
2023-02-28T02:07:35.856Z,0.29
2023-02-28T02:10:44.199Z,0.36
2023-02-28T02:13:58.390Z,0.40
2023-02-28T02:17:10.767Z,0.44
2023-02-28T02:20:47.837Z,0.44
2023-02-28T02:24:25.853Z,0.40
2023-02-28T02:27:49.371Z,0.37
2023-02-28T02:31:07.429Z,0.33
2023-02-28T02:34:41.429Z,0.30
2023-02-28T02:38:08.712Z,0.26
2023-02-28T02:41:41.913Z,0.15
2023-02-28T02:44:50.360Z,-0.09
2023-02-28T02:47:53.348Z,0.17
2023-02-28T02:51:02.526Z,0.09
2023-02-28T02:54:17.050Z,0.01
2023-02-28T02:57:26.845Z,-0.04
2023-02-28T03:00:36.508Z,-0.05
2023-02-28T03:03:39.287Z,-0.05
2023-02-28T03:06:41.274Z,-0.06
2023-02-28T03:09:53.960Z,-0.06
2023-02-28T03:13:10.176Z,-0.06
2023-02-28T03:16:35.295Z,-0.12
2023-02-28T03:20:24.830Z,-0.16
2023-02-28T03:24:13.039Z,-0.27
2023-02-28T03:27:23.396Z,-0.37
2023-02-28T03:30:55.047Z,-0.70
2023-02-28T03:34:05.160Z,-0.78
2023-02-28T03:37:13.609Z,-0.87
2023-02-28T03:40:21.360Z,-0.92
2023-02-28T03:43:31.122Z,-0.97
2023-02-28T03:46:39.907Z,-0.86
2023-02-28T03:49:48.939Z,-0.90
2023-02-28T03:52:55.419Z,-1.41
2023-02-28T03:56:12.468Z,-1.03
2023-02-28T03:59:19.676Z,-1.10
2023-02-28T04:02:21.644Z,-1.61
2023-02-28T04:05:23.990Z,-1.49
2023-02-28T04:08:25.990Z,-1.18
2023-02-28T04:11:36.148Z,-1.19
2023-02-28T04:14:38.202Z,-1.23
2023-02-28T04:17:40.254Z,-1.23
2023-02-28T04:20:42.182Z,-1.23
2023-02-28T04:23:44.131Z,-1.26
2023-02-28T04:26:48.589Z,-1.23
2023-02-28T04:29:50.584Z,-1.20
2023-02-28T04:32:52.536Z,-1.24
2023-02-28T04:36:06.243Z,-1.11
2023-02-28T04:39:08.216Z,-1.08
2023-02-28T04:42:10.785Z,-1.04
2023-02-28T04:45:12.715Z,-0.98
2023-02-28T04:48:14.764Z,-0.90
2023-02-28T04:51:19.492Z,-0.80
2023-02-28T04:54:21.596Z,-0.72
2023-02-28T04:57:23.577Z,-0.67
2023-02-28T05:00:26.445Z,-0.62
2023-02-28T05:03:28.381Z,-0.58
2023-02-28T05:06:33.178Z,-0.54
2023-02-28T05:09:35.751Z,-0.52
2023-02-28T05:12:37.877Z,-0.74
2023-02-28T05:15:40.164Z,-0.53
2023-02-28T05:18:42.586Z,-0.55
2023-02-28T05:21:53.830Z,-0.64
2023-02-28T05:24:55.798Z,-0.79
2023-02-28T05:27:57.850Z,-0.86
2023-02-28T05:30:59.783Z,-0.91
2023-02-28T05:34:02.157Z,-1.04
2023-02-28T05:37:04.377Z,-1.08
2023-02-28T05:40:10.041Z,-1.11
2023-02-28T05:43:13.072Z,-1.58
2023-02-28T05:46:15.269Z,-1.25
2023-02-28T05:49:17.475Z,-1.30
2023-02-28T05:52:19.547Z,-1.56
2023-02-28T05:55:21.669Z,-1.48
2023-02-28T05:58:23.634Z,-1.47
2023-02-28T06:01:49.255Z,-1.47
2023-02-28T06:04:51.430Z,-1.54
2023-02-28T06:07:53.392Z,-1.60
2023-02-28T06:10:55.365Z,-1.63
2023-02-28T06:14:00.660Z,-1.90
2023-02-28T06:17:03.651Z,-1.69
2023-02-28T06:20:06.749Z,-1.70
2023-02-28T06:23:08.789Z,-1.69
2023-02-28T06:26:11.409Z,-1.67
2023-02-28T06:29:18.224Z,-1.62
2023-02-28T06:32:20.918Z,-1.53
2023-02-28T06:35:23.298Z,-1.44
2023-02-28T06:38:25.358Z,-1.38
2023-02-28T06:41:28.941Z,-1.47
2023-02-28T06:44:36.583Z,-1.16
2023-02-28T06:47:40.321Z,-1.08
2023-02-28T06:50:42.276Z,-1.04
2023-02-28T06:53:44.385Z,-1.09
2023-02-28T06:56:46.332Z,-1.08
2023-02-28T06:59:48.245Z,-1.03
2023-02-28T07:02:50.279Z,-0.96
2023-02-28T07:05:52.559Z,-0.93
2023-02-28T07:08:55.241Z,-1.03
2023-02-28T07:11:57.483Z,-0.69
2023-02-28T07:14:59.478Z,-0.51
2023-02-28T07:18:01.682Z,-0.30
2023-02-28T07:21:09.469Z,-0.04
2023-02-28T07:24:11.693Z,0.26
2023-02-28T07:27:13.630Z,0.44
2023-02-28T07:30:15.887Z,0.61
2023-02-28T07:33:17.975Z,0.70
2023-02-28T07:36:19.977Z,0.97
2023-02-28T07:39:23.097Z,1.10
2023-02-28T07:42:25.054Z,1.22
2023-02-28T07:45:27.748Z,1.24
2023-02-28T07:48:29.699Z,1.28
2023-02-28T07:51:32.001Z,1.34
2023-02-28T07:54:34.492Z,1.95
2023-02-28T07:57:36.704Z,1.91
2023-02-28T08:00:38.919Z,2.03
2023-02-28T08:03:41.943Z,2.23
2023-02-28T08:06:43.960Z,2.49
2023-02-28T08:09:46.254Z,2.59
2023-02-28T08:12:48.433Z,2.73
2023-02-28T08:15:50.487Z,2.50
2023-02-28T08:18:53.471Z,3.05
2023-02-28T08:21:56.155Z,2.97
2023-02-28T08:24:58.133Z,3.18
2023-02-28T08:28:00.146Z,3.10
2023-02-28T08:31:02.229Z,3.66
2023-02-28T08:34:12.107Z,3.96
2023-02-28T08:37:14.221Z,4.27
2023-02-28T08:40:19.305Z,4.45
2023-02-28T08:43:21.360Z,5.04
2023-02-28T08:46:24.848Z,5.27
2023-02-28T08:49:27.302Z,5.54
2023-02-28T08:52:29.245Z,6.05
2023-02-28T08:55:31.241Z,5.46
2023-02-28T08:58:34.697Z,5.71
2023-02-28T09:01:37.815Z,5.47
2023-02-28T09:04:39.866Z,5.13
2023-02-28T09:07:42.080Z,4.90
2023-02-28T09:10:44.044Z,5.04
2023-02-28T09:13:46.947Z,5.18
2023-02-28T09:16:48.946Z,5.04
2023-02-28T09:19:50.984Z,5.09
2023-02-28T09:22:52.951Z,5.26
2023-02-28T09:25:56.155Z,5.44
2023-02-28T09:29:00.139Z,5.22
2023-02-28T09:32:03.304Z,5.30
2023-02-28T09:35:06.415Z,5.51
2023-02-28T09:38:08.672Z,5.71
2023-02-28T09:41:26.559Z,5.83
2023-02-28T09:44:44.616Z,5.60
2023-02-28T09:47:51.057Z,5.44
2023-02-28T09:51:01.853Z,5.53
2023-02-28T09:54:03.992Z,6.25
2023-02-28T09:57:05.880Z,6.42
2023-02-28T10:00:26.093Z,6.72
2023-02-28T10:03:41.542Z,7.13
2023-02-28T10:06:51.653Z,7.03
2023-02-28T10:09:59.782Z,6.53
2023-02-28T10:13:05.618Z,6.53
2023-02-28T10:16:12.358Z,6.86
2023-02-28T10:19:21.371Z,6.78
2023-02-28T10:22:30.111Z,5.77
2023-02-28T10:25:32.082Z,6.07
2023-02-28T10:28:34.255Z,5.90
2023-02-28T10:31:36.299Z,5.97
2023-02-28T10:34:38.279Z,6.42
2023-02-28T10:37:42.089Z,6.59
2023-02-28T10:40:44.074Z,6.71
2023-02-28T10:43:49.038Z,6.65
2023-02-28T10:46:52.022Z,7.13
2023-02-28T10:49:54.198Z,7.04
2023-02-28T10:53:06.105Z,7.26
2023-02-28T10:56:11.187Z,7.30
2023-02-28T10:59:15.872Z,7.32
2023-02-28T11:02:45.696Z,7.78
2023-02-28T11:05:50.071Z,8.27
2023-02-28T11:09:19.265Z,8.19
2023-02-28T11:12:23.014Z,8.47
2023-02-28T11:15:32.091Z,8.66
2023-02-28T11:18:46.347Z,8.65
2023-02-28T11:22:08.476Z,8.62
2023-02-28T11:25:20.969Z,8.79
2023-02-28T11:28:34.938Z,8.93
2023-02-28T11:31:37.038Z,8.66
2023-02-28T11:34:40.561Z,8.53
2023-02-28T11:37:42.750Z,8.21
2023-02-28T11:40:47.666Z,8.24
2023-02-28T11:44:27.276Z,8.65
2023-02-28T11:47:46.148Z,7.99
2023-02-28T11:51:16.700Z,7.12
2023-02-28T11:54:30.780Z,6.70
2023-02-28T11:57:37.007Z,6.39
2023-02-28T12:00:49.571Z,6.02
2023-02-28T12:04:01.082Z,6.02
2023-02-28T12:07:23.395Z,5.95
2023-02-28T12:10:31.762Z,5.83
2023-02-28T12:13:47.098Z,5.88
2023-02-28T12:17:00.702Z,5.95
2023-02-28T12:20:30.569Z,6.34
2023-02-28T12:23:50.841Z,6.79
2023-02-28T12:26:55.930Z,7.03
2023-02-28T12:30:23.696Z,7.15
2023-02-28T12:33:31.474Z,6.93
2023-02-28T12:36:37.291Z,6.40
2023-02-28T12:39:50.560Z,6.83
2023-02-28T12:42:56.258Z,6.81
2023-02-28T12:46:03.797Z,6.70
2023-02-28T12:49:19.011Z,6.61
2023-02-28T12:52:41.130Z,6.10
2023-02-28T12:55:50.849Z,6.16
2023-02-28T12:58:58.810Z,5.95
2023-02-28T13:02:18.943Z,5.92
2023-02-28T13:05:54.979Z,5.53
2023-02-28T13:09:15.232Z,5.71
2023-02-28T13:12:17.860Z,5.80
2023-02-28T13:15:22.960Z,5.59
2023-02-28T13:18:40.919Z,5.41
2023-02-28T13:21:45.731Z,5.59
2023-02-28T13:24:52.596Z,5.65
2023-02-28T13:27:57.965Z,5.40
2023-02-28T13:31:04.028Z,5.76
2023-02-28T13:34:13.521Z,5.97
2023-02-28T13:37:30.657Z,5.88
2023-02-28T13:40:38.873Z,5.58
2023-02-28T13:44:18.148Z,6.17
2023-02-28T13:47:28.898Z,5.92
2023-02-28T13:50:40.245Z,5.72
2023-02-28T13:53:56.961Z,5.41
2023-02-28T13:57:08.011Z,5.20
2023-02-28T14:00:54.730Z,5.16
2023-02-28T14:04:13.893Z,5.03
2023-02-28T14:07:23.847Z,5.21
2023-02-28T14:11:05.051Z,5.31
2023-02-28T14:14:09.816Z,5.29
2023-02-28T14:17:18.177Z,4.90
2023-02-28T14:20:22.980Z,5.18
2023-02-28T14:23:52.344Z,4.78
2023-02-28T14:27:09.285Z,5.22
2023-02-28T14:30:46.582Z,5.23
2023-02-28T14:34:12.864Z,5.24
2023-02-28T14:37:21.341Z,5.18
2023-02-28T14:40:33.567Z,5.27
2023-02-28T14:43:35.646Z,5.28
2023-02-28T14:46:40.879Z,5.04
2023-02-28T14:49:48.774Z,5.10
2023-02-28T14:52:56.311Z,5.18
2023-02-28T14:55:58.390Z,5.20
2023-02-28T14:59:00.390Z,5.20
2023-02-28T15:02:36.361Z,5.16
2023-02-28T15:05:38.626Z,4.75
2023-02-28T15:08:40.688Z,4.98
2023-02-28T15:11:46.103Z,4.87
2023-02-28T15:14:52.068Z,4.42
2023-02-28T15:17:57.862Z,4.90
2023-02-28T15:21:05.723Z,4.72
2023-02-28T15:24:15.908Z,4.66
2023-02-28T15:27:31.049Z,4.65
2023-02-28T15:30:33.902Z,4.59
2023-02-28T15:33:35.843Z,4.54
2023-02-28T15:36:38.322Z,4.51
2023-02-28T15:39:46.251Z,4.46
2023-02-28T15:43:18.071Z,4.30
2023-02-28T15:46:20.855Z,4.21
2023-02-28T15:49:24.589Z,4.08
2023-02-28T15:52:35.299Z,3.90
2023-02-28T15:55:38.170Z,3.74
2023-02-28T15:58:40.460Z,3.56
2023-02-28T16:01:42.417Z,3.46
2023-02-28T16:05:29.337Z,3.35
2023-02-28T16:08:31.456Z,3.22
2023-02-28T16:11:36.164Z,3.01
2023-02-28T16:14:39.881Z,2.91
2023-02-28T16:17:42.342Z,2.79
2023-02-28T16:20:45.822Z,2.68
2023-02-28T16:23:47.825Z,2.65
2023-02-28T16:26:53.532Z,2.50
2023-02-28T16:29:55.657Z,2.33
2023-02-28T16:32:57.807Z,1.85
2023-02-28T16:36:00.844Z,1.91
2023-02-28T16:39:04.017Z,1.90
2023-02-28T16:42:06.227Z,1.68
2023-02-28T16:45:20.982Z,1.63
2023-02-28T16:48:24.381Z,1.48
2023-02-28T16:51:26.603Z,1.39
2023-02-28T16:54:28.821Z,1.26
2023-02-28T16:57:32.995Z,1.20
2023-02-28T17:00:36.209Z,1.10
2023-02-28T17:03:41.474Z,0.81
2023-02-28T17:06:43.775Z,0.93
2023-02-28T17:09:46.933Z,0.86
2023-02-28T17:12:49.400Z,0.77
2023-02-28T17:15:52.207Z,0.67
2023-02-28T17:18:57.886Z,0.18
2023-02-28T17:22:01.777Z,0.54
2023-02-28T17:25:05.058Z,0.50
2023-02-28T17:28:07.539Z,0.45
2023-02-28T17:31:10.926Z,0.39
2023-02-28T17:34:19.930Z,0.32
2023-02-28T17:37:23.486Z,0.28
2023-02-28T17:40:25.980Z,0.23
2023-02-28T17:43:28.885Z,0.14
2023-02-28T17:46:34.081Z,0.16
2023-02-28T17:49:37.683Z,-0.21
2023-02-28T17:52:40.248Z,0.14
2023-02-28T17:55:42.578Z,0.11
2023-02-28T17:58:44.965Z,0.07
2023-02-28T18:01:47.525Z,0.03
2023-02-28T18:04:49.885Z,-0.03
2023-02-28T18:07:53.594Z,-0.13
2023-02-28T18:10:56.568Z,-0.19
2023-02-28T18:14:00.340Z,-0.25
2023-02-28T18:17:02.953Z,-0.28
2023-02-28T18:20:06.148Z,-0.61
2023-02-28T18:23:08.974Z,-0.60
2023-02-28T18:26:11.482Z,-0.39
2023-02-28T18:29:26.680Z,-0.40
2023-02-28T18:32:32.461Z,-0.44
2023-02-28T18:35:36.374Z,-0.48
2023-02-28T18:38:40.620Z,-0.65
2023-02-28T18:41:43.926Z,-0.88
2023-02-28T18:44:46.755Z,-0.56
2023-02-28T18:47:50.981Z,-0.58
2023-02-28T18:50:53.540Z,-1.04
2023-02-28T18:53:58.161Z,-0.92
2023-02-28T18:57:01.530Z,-0.64
2023-02-28T19:00:05.228Z,-1.11
2023-02-28T19:03:08.157Z,-0.74
2023-02-28T19:06:11.352Z,-0.78
2023-02-28T19:09:14.574Z,-0.78
2023-02-28T19:12:18.304Z,-0.81
2023-02-28T19:15:20.955Z,-1.09
2023-02-28T19:18:23.409Z,-0.86
2023-02-28T19:21:26.855Z,-0.91
2023-02-28T19:24:33.230Z,-1.02
2023-02-28T19:27:36.285Z,-0.98
2023-02-28T19:30:39.271Z,-1.22
2023-02-28T19:33:43.126Z,-1.02
2023-02-28T19:36:46.475Z,-1.05
2023-02-28T19:39:49.650Z,-1.16
2023-02-28T19:42:52.543Z,-1.23
2023-02-28T19:45:55.895Z,-1.09
2023-02-28T19:48:58.944Z,-1.11
2023-02-28T19:52:02.178Z,-1.11
2023-02-28T19:55:07.177Z,-1.44
2023-02-28T19:58:10.976Z,-1.51
2023-02-28T20:01:16.931Z,-1.19
2023-02-28T20:04:19.431Z,-1.20
2023-02-28T20:07:22.460Z,-1.70
2023-02-28T20:10:27.104Z,-1.53
2023-02-28T20:13:30.056Z,-1.68
2023-02-28T20:16:33.604Z,-1.36
2023-02-28T20:19:38.859Z,-1.40
2023-02-28T20:22:41.772Z,-1.73
2023-02-28T20:25:44.637Z,-1.42
2023-02-28T20:28:48.197Z,-1.43
2023-02-28T20:31:51.315Z,-1.46
2023-02-28T20:34:56.061Z,-1.58
2023-02-28T20:37:58.369Z,-1.73
2023-02-28T20:41:03.665Z,-1.63
2023-02-28T20:44:07.086Z,-1.68
2023-02-28T20:47:14.417Z,-1.69
2023-02-28T20:50:17.997Z,-1.73
2023-02-28T20:53:21.114Z,-1.72
2023-02-28T20:56:27.538Z,-2.18
2023-02-28T20:59:30.528Z,-2.01
2023-02-28T21:02:33.535Z,-1.83
2023-02-28T21:05:36.219Z,-2.92
2023-02-28T21:08:42.082Z,-1.91
2023-02-28T21:11:44.988Z,-2.13
2023-02-28T21:14:47.186Z,-1.99
2023-02-28T21:17:49.769Z,-1.73
2023-02-28T21:20:52.597Z,-1.70
2023-02-28T21:23:54.937Z,-1.82
2023-02-28T21:27:01.381Z,-1.69
2023-02-28T21:30:05.618Z,-2.03
2023-02-28T21:33:07.882Z,-1.74
2023-02-28T21:36:17.451Z,-1.83
2023-02-28T21:39:26.252Z,-1.97
2023-02-28T21:42:28.589Z,-1.71
2023-02-28T21:45:31.346Z,-1.80
2023-02-28T21:48:34.329Z,-2.72
2023-02-28T21:51:37.194Z,-1.78
2023-02-28T21:54:39.968Z,-1.79
2023-02-28T21:57:41.996Z,-1.82
2023-02-28T22:00:46.130Z,-1.82
2023-02-28T22:03:50.188Z,-1.83
2023-02-28T22:06:54.728Z,-1.85
2023-02-28T22:09:56.702Z,-1.84
2023-02-28T22:13:01.966Z,-1.86
2023-02-28T22:16:12.062Z,-2.13
2023-02-28T22:19:14.311Z,-2.20
2023-02-28T22:22:16.380Z,-1.93
2023-02-28T22:25:18.941Z,-1.96
2023-02-28T22:28:21.907Z,-2.33
2023-02-28T22:31:29.914Z,-1.96
2023-02-28T22:34:31.905Z,-2.40
2023-02-28T22:37:33.948Z,-1.95
2023-02-28T22:40:36.774Z,-1.95
2023-02-28T22:43:40.345Z,-1.98
2023-02-28T22:46:42.359Z,-1.98
2023-02-28T22:49:44.399Z,-2.00
2023-02-28T22:52:46.352Z,-2.21
2023-02-28T22:55:54.918Z,-2.37
2023-02-28T22:58:58.993Z,-2.05
2023-02-28T23:02:00.922Z,-2.08
2023-02-28T23:05:02.864Z,-2.06
2023-02-28T23:08:04.864Z,-2.09
2023-02-28T23:11:06.813Z,-2.08
2023-02-28T23:14:09.814Z,-2.10
2023-02-28T23:17:12.022Z,-2.02
2023-02-28T23:20:19.495Z,-2.37
2023-02-28T23:23:21.653Z,-2.01
2023-02-28T23:26:24.061Z,-2.02
2023-02-28T23:29:27.705Z,-2.27
2023-02-28T23:32:29.745Z,-2.11
2023-02-28T23:35:33.446Z,-2.40
2023-02-28T23:38:36.097Z,-2.13
2023-02-28T23:41:38.053Z,-2.16
2023-02-28T23:44:40.090Z,-2.14
2023-02-28T23:47:42.061Z,-2.19
2023-02-28T23:50:44.046Z,-2.37
2023-02-28T23:53:48.451Z,-2.20
2023-02-28T23:56:50.440Z,-2.20
2023-02-28T23:59:52.391Z,-2.21
